sensor_id;sensor_type;location;lat;lon;timestamp;P1;durP1;ratioP1;P2;durP2;ratioP2
21754;SDS011;11039;50.028;19.938;2022-09-11T00:01:03;3.17;;;1.70;;
21754;SDS011;11039;50.028;19.938;2022-09-11T00:03:30;3.47;;;1.70;;
21754;SDS011;11039;50.028;19.938;2022-09-11T00:06:00;2.85;;;1.63;;
21754;SDS011;11039;50.028;19.938;2022-09-11T00:08:26;2.15;;;1.63;;
21754;SDS011;11039;50.028;19.938;2022-09-11T00:10:54;2.55;;;1.60;;
21754;SDS011;11039;50.028;19.938;2022-09-11T00:13:21;2.85;;;1.50;;
21754;SDS011;11039;50.028;19.938;2022-09-11T00:15:48;2.72;;;1.60;;
21754;SDS011;11039;50.028;19.938;2022-09-11T00:18:15;2.30;;;1.45;;
21754;SDS011;11039;50.028;19.938;2022-09-11T00:20:49;2.53;;;1.50;;
21754;SDS011;11039;50.028;19.938;2022-09-11T00:23:16;3.20;;;1.60;;
21754;SDS011;11039;50.028;19.938;2022-09-11T00:25:43;3.25;;;1.67;;
21754;SDS011;11039;50.028;19.938;2022-09-11T00:28:10;3.13;;;1.33;;
21754;SDS011;11039;50.028;19.938;2022-09-11T00:30:37;2.53;;;1.50;;
21754;SDS011;11039;50.028;19.938;2022-09-11T00:33:03;2.65;;;1.27;;
21754;SDS011;11039;50.028;19.938;2022-09-11T00:35:29;2.40;;;1.38;;
21754;SDS011;11039;50.028;19.938;2022-09-11T00:37:55;4.28;;;1.73;;
21754;SDS011;11039;50.028;19.938;2022-09-11T00:40:21;1.52;;;1.20;;
21754;SDS011;11039;50.028;19.938;2022-09-11T00:42:52;2.88;;;1.60;;
21754;SDS011;11039;50.028;19.938;2022-09-11T00:45:24;2.92;;;2.08;;
21754;SDS011;11039;50.028;19.938;2022-09-11T00:47:50;2.38;;;1.42;;
21754;SDS011;11039;50.028;19.938;2022-09-11T00:50:19;2.75;;;1.50;;
21754;SDS011;11039;50.028;19.938;2022-09-11T00:52:52;3.05;;;1.60;;
21754;SDS011;11039;50.028;19.938;2022-09-11T00:55:19;1.70;;;1.10;;
21754;SDS011;11039;50.028;19.938;2022-09-11T00:57:57;2.72;;;1.50;;
21754;SDS011;11039;50.028;19.938;2022-09-11T01:00:24;1.92;;;1.20;;
21754;SDS011;11039;50.028;19.938;2022-09-11T01:02:51;2.92;;;1.38;;
21754;SDS011;11039;50.028;19.938;2022-09-11T01:05:18;2.58;;;1.42;;
21754;SDS011;11039;50.028;19.938;2022-09-11T01:07:47;2.95;;;1.73;;
21754;SDS011;11039;50.028;19.938;2022-09-11T01:10:14;2.97;;;1.40;;
21754;SDS011;11039;50.028;19.938;2022-09-11T01:13:00;2.50;;;1.38;;
21754;SDS011;11039;50.028;19.938;2022-09-11T01:15:32;3.17;;;1.63;;
21754;SDS011;11039;50.028;19.938;2022-09-11T01:20:43;2.42;;;1.50;;
21754;SDS011;11039;50.028;19.938;2022-09-11T01:28:31;2.25;;;1.25;;
21754;SDS011;11039;50.028;19.938;2022-09-11T01:31:01;2.72;;;1.42;;
21754;SDS011;11039;50.028;19.938;2022-09-11T01:33:34;2.13;;;1.30;;
21754;SDS011;11039;50.028;19.938;2022-09-11T01:38:33;1.30;;;1.08;;
21754;SDS011;11039;50.028;19.938;2022-09-11T01:41:07;2.83;;;1.40;;
21754;SDS011;11039;50.028;19.938;2022-09-11T01:43:37;2.10;;;1.33;;
21754;SDS011;11039;50.028;19.938;2022-09-11T01:46:05;2.35;;;1.27;;
21754;SDS011;11039;50.028;19.938;2022-09-11T01:48:40;3.10;;;1.40;;
21754;SDS011;11039;50.028;19.938;2022-09-11T01:51:07;2.22;;;1.30;;
21754;SDS011;11039;50.028;19.938;2022-09-11T01:53:37;1.95;;;1.13;;
21754;SDS011;11039;50.028;19.938;2022-09-11T01:56:25;3.60;;;1.35;;
21754;SDS011;11039;50.028;19.938;2022-09-11T01:58:53;3.90;;;1.65;;
21754;SDS011;11039;50.028;19.938;2022-09-11T02:01:22;2.30;;;1.40;;
21754;SDS011;11039;50.028;19.938;2022-09-11T02:04:12;1.50;;;1.08;;
21754;SDS011;11039;50.028;19.938;2022-09-11T02:06:38;2.78;;;1.10;;
21754;SDS011;11039;50.028;19.938;2022-09-11T02:09:08;3.30;;;1.50;;
21754;SDS011;11039;50.028;19.938;2022-09-11T02:11:35;2.70;;;1.40;;
21754;SDS011;11039;50.028;19.938;2022-09-11T02:19:14;1.60;;;1.10;;
21754;SDS011;11039;50.028;19.938;2022-09-11T02:21:42;1.92;;;1.30;;
21754;SDS011;11039;50.028;19.938;2022-09-11T02:24:08;1.85;;;1.20;;
21754;SDS011;11039;50.028;19.938;2022-09-11T02:26:39;2.10;;;1.20;;
21754;SDS011;11039;50.028;19.938;2022-09-11T02:29:06;2.13;;;1.08;;
21754;SDS011;11039;50.028;19.938;2022-09-11T02:31:33;2.30;;;1.30;;
21754;SDS011;11039;50.028;19.938;2022-09-11T02:34:00;2.33;;;1.30;;
21754;SDS011;11039;50.028;19.938;2022-09-11T02:39:06;1.88;;;1.40;;
21754;SDS011;11039;50.028;19.938;2022-09-11T02:51:46;1.88;;;1.15;;
21754;SDS011;11039;50.028;19.938;2022-09-11T02:54:34;2.50;;;1.33;;
21754;SDS011;11039;50.028;19.938;2022-09-11T02:59:49;1.90;;;1.23;;
21754;SDS011;11039;50.028;19.938;2022-09-11T03:02:18;2.35;;;1.20;;
21754;SDS011;11039;50.028;19.938;2022-09-11T03:04:44;2.08;;;1.25;;
21754;SDS011;11039;50.028;19.938;2022-09-11T03:07:10;1.70;;;1.10;;
21754;SDS011;11039;50.028;19.938;2022-09-11T03:09:36;3.15;;;1.48;;
21754;SDS011;11039;50.028;19.938;2022-09-11T03:12:02;2.05;;;1.13;;
21754;SDS011;11039;50.028;19.938;2022-09-11T03:14:29;2.15;;;1.10;;
21754;SDS011;11039;50.028;19.938;2022-09-11T03:16:55;2.50;;;1.42;;
21754;SDS011;11039;50.028;19.938;2022-09-11T03:19:21;1.63;;;1.23;;
21754;SDS011;11039;50.028;19.938;2022-09-11T03:21:47;2.45;;;1.15;;
21754;SDS011;11039;50.028;19.938;2022-09-11T03:24:15;2.08;;;1.13;;
21754;SDS011;11039;50.028;19.938;2022-09-11T03:26:41;1.88;;;0.93;;
21754;SDS011;11039;50.028;19.938;2022-09-11T03:29:07;3.47;;;1.35;;
21754;SDS011;11039;50.028;19.938;2022-09-11T03:31:33;2.03;;;1.20;;
21754;SDS011;11039;50.028;19.938;2022-09-11T03:33:59;1.65;;;1.10;;
21754;SDS011;11039;50.028;19.938;2022-09-11T03:36:25;1.90;;;1.20;;
21754;SDS011;11039;50.028;19.938;2022-09-11T03:38:51;2.35;;;1.25;;
21754;SDS011;11039;50.028;19.938;2022-09-11T03:41:19;2.00;;;1.27;;
21754;SDS011;11039;50.028;19.938;2022-09-11T03:43:45;2.80;;;1.10;;
21754;SDS011;11039;50.028;19.938;2022-09-11T03:46:11;2.03;;;1.10;;
21754;SDS011;11039;50.028;19.938;2022-09-11T03:48:37;1.98;;;1.10;;
21754;SDS011;11039;50.028;19.938;2022-09-11T03:51:03;1.70;;;1.13;;
21754;SDS011;11039;50.028;19.938;2022-09-11T03:53:30;3.30;;;1.10;;
21754;SDS011;11039;50.028;19.938;2022-09-11T03:55:57;1.85;;;0.90;;
21754;SDS011;11039;50.028;19.938;2022-09-11T03:58:24;2.10;;;1.15;;
21754;SDS011;11039;50.028;19.938;2022-09-11T04:00:50;1.73;;;1.30;;
21754;SDS011;11039;50.028;19.938;2022-09-11T04:03:17;1.67;;;1.10;;
21754;SDS011;11039;50.028;19.938;2022-09-11T04:05:43;4.07;;;1.25;;
21754;SDS011;11039;50.028;19.938;2022-09-11T04:08:20;2.10;;;1.00;;
21754;SDS011;11039;50.028;19.938;2022-09-11T04:10:46;1.75;;;0.90;;
21754;SDS011;11039;50.028;19.938;2022-09-11T04:13:12;2.20;;;1.30;;
21754;SDS011;11039;50.028;19.938;2022-09-11T04:15:38;1.63;;;0.93;;
21754;SDS011;11039;50.028;19.938;2022-09-11T04:18:05;1.58;;;1.10;;
21754;SDS011;11039;50.028;19.938;2022-09-11T04:20:31;2.08;;;0.93;;
21754;SDS011;11039;50.028;19.938;2022-09-11T04:22:57;2.47;;;1.10;;
21754;SDS011;11039;50.028;19.938;2022-09-11T04:25:23;1.90;;;1.10;;
21754;SDS011;11039;50.028;19.938;2022-09-11T04:27:49;1.45;;;0.90;;
21754;SDS011;11039;50.028;19.938;2022-09-11T04:30:15;1.90;;;1.20;;
21754;SDS011;11039;50.028;19.938;2022-09-11T04:32:42;2.53;;;1.20;;
21754;SDS011;11039;50.028;19.938;2022-09-11T04:35:10;2.03;;;1.02;;
21754;SDS011;11039;50.028;19.938;2022-09-11T04:37:36;1.50;;;1.00;;
21754;SDS011;11039;50.028;19.938;2022-09-11T04:40:02;2.00;;;1.00;;
21754;SDS011;11039;50.028;19.938;2022-09-11T04:42:28;1.38;;;0.88;;
21754;SDS011;11039;50.028;19.938;2022-09-11T04:44:54;2.40;;;1.02;;
21754;SDS011;11039;50.028;19.938;2022-09-11T04:47:20;2.05;;;1.10;;
21754;SDS011;11039;50.028;19.938;2022-09-11T04:49:46;1.95;;;1.10;;
21754;SDS011;11039;50.028;19.938;2022-09-11T04:52:13;2.03;;;0.88;;
21754;SDS011;11039;50.028;19.938;2022-09-11T04:54:39;1.40;;;0.90;;
21754;SDS011;11039;50.028;19.938;2022-09-11T04:57:05;2.47;;;0.80;;
21754;SDS011;11039;50.028;19.938;2022-09-11T04:59:33;1.33;;;0.98;;
21754;SDS011;11039;50.028;19.938;2022-09-11T05:01:59;3.95;;;1.10;;
21754;SDS011;11039;50.028;19.938;2022-09-11T05:04:25;1.80;;;1.02;;
21754;SDS011;11039;50.028;19.938;2022-09-11T05:06:52;1.33;;;0.90;;
21754;SDS011;11039;50.028;19.938;2022-09-11T05:09:18;1.63;;;0.90;;
21754;SDS011;11039;50.028;19.938;2022-09-11T05:11:44;2.20;;;0.98;;
21754;SDS011;11039;50.028;19.938;2022-09-11T05:14:10;1.67;;;1.02;;
21754;SDS011;11039;50.028;19.938;2022-09-11T05:16:36;1.80;;;0.93;;
21754;SDS011;11039;50.028;19.938;2022-09-11T05:19:03;2.13;;;1.10;;
21754;SDS011;11039;50.028;19.938;2022-09-11T05:21:29;1.67;;;1.00;;
21754;SDS011;11039;50.028;19.938;2022-09-11T05:23:56;2.42;;;1.20;;
21754;SDS011;11039;50.028;19.938;2022-09-11T05:26:29;2.30;;;0.90;;
21754;SDS011;11039;50.028;19.938;2022-09-11T05:28:56;2.22;;;1.17;;
21754;SDS011;11039;50.028;19.938;2022-09-11T05:31:23;1.23;;;0.77;;
21754;SDS011;11039;50.028;19.938;2022-09-11T05:33:53;2.10;;;1.10;;
21754;SDS011;11039;50.028;19.938;2022-09-11T05:36:19;2.42;;;1.35;;
21754;SDS011;11039;50.028;19.938;2022-09-11T05:38:45;2.10;;;1.08;;
21754;SDS011;11039;50.028;19.938;2022-09-11T05:41:12;1.48;;;0.95;;
21754;SDS011;11039;50.028;19.938;2022-09-11T05:43:39;1.63;;;0.90;;
21754;SDS011;11039;50.028;19.938;2022-09-11T05:46:06;1.98;;;0.85;;
21754;SDS011;11039;50.028;19.938;2022-09-11T05:48:33;2.15;;;1.00;;
21754;SDS011;11039;50.028;19.938;2022-09-11T05:51:01;1.15;;;0.80;;
21754;SDS011;11039;50.028;19.938;2022-09-11T05:53:30;1.50;;;1.00;;
21754;SDS011;11039;50.028;19.938;2022-09-11T05:55:56;1.50;;;0.95;;
21754;SDS011;11039;50.028;19.938;2022-09-11T05:58:24;1.98;;;0.90;;
21754;SDS011;11039;50.028;19.938;2022-09-11T06:00:50;2.15;;;0.98;;
21754;SDS011;11039;50.028;19.938;2022-09-11T06:03:16;2.33;;;1.15;;
21754;SDS011;11039;50.028;19.938;2022-09-11T06:05:43;1.88;;;1.10;;
21754;SDS011;11039;50.028;19.938;2022-09-11T06:08:10;1.48;;;1.10;;
21754;SDS011;11039;50.028;19.938;2022-09-11T06:10:37;2.03;;;1.05;;
21754;SDS011;11039;50.028;19.938;2022-09-11T06:13:11;1.90;;;0.90;;
21754;SDS011;11039;50.028;19.938;2022-09-11T06:15:46;2.08;;;0.93;;
21754;SDS011;11039;50.028;19.938;2022-09-11T06:18:13;1.92;;;1.10;;
21754;SDS011;11039;50.028;19.938;2022-09-11T06:20:39;3.85;;;1.30;;
21754;SDS011;11039;50.028;19.938;2022-09-11T06:23:07;2.25;;;1.00;;
21754;SDS011;11039;50.028;19.938;2022-09-11T06:25:33;3.13;;;1.10;;
21754;SDS011;11039;50.028;19.938;2022-09-11T06:28:00;1.52;;;1.33;;
21754;SDS011;11039;50.028;19.938;2022-09-11T06:30:26;1.52;;;1.20;;
21754;SDS011;11039;50.028;19.938;2022-09-11T06:32:52;3.83;;;1.38;;
21754;SDS011;11039;50.028;19.938;2022-09-11T06:35:20;2.05;;;1.27;;
21754;SDS011;11039;50.028;19.938;2022-09-11T06:37:47;1.63;;;1.08;;
21754;SDS011;11039;50.028;19.938;2022-09-11T06:40:13;2.00;;;1.05;;
21754;SDS011;11039;50.028;19.938;2022-09-11T06:42:39;1.65;;;1.27;;
21754;SDS011;11039;50.028;19.938;2022-09-11T06:45:05;1.45;;;0.88;;
21754;SDS011;11039;50.028;19.938;2022-09-11T06:47:32;2.47;;;1.10;;
21754;SDS011;11039;50.028;19.938;2022-09-11T06:49:58;1.50;;;1.20;;
21754;SDS011;11039;50.028;19.938;2022-09-11T06:52:24;2.50;;;1.08;;
21754;SDS011;11039;50.028;19.938;2022-09-11T06:54:52;1.75;;;1.13;;
21754;SDS011;11039;50.028;19.938;2022-09-11T06:57:18;2.13;;;1.40;;
21754;SDS011;11039;50.028;19.938;2022-09-11T06:59:44;1.50;;;1.02;;
21754;SDS011;11039;50.028;19.938;2022-09-11T07:02:10;2.22;;;1.40;;
21754;SDS011;11039;50.028;19.938;2022-09-11T07:04:36;2.00;;;1.50;;
21754;SDS011;11039;50.028;19.938;2022-09-11T07:07:02;4.63;;;1.80;;
21754;SDS011;11039;50.028;19.938;2022-09-11T07:09:29;4.45;;;2.00;;
21754;SDS011;11039;50.028;19.938;2022-09-11T07:11:55;3.05;;;1.83;;
21754;SDS011;11039;50.028;19.938;2022-09-11T07:14:21;6.38;;;2.45;;
21754;SDS011;11039;50.028;19.938;2022-09-11T07:16:50;3.13;;;2.17;;
21754;SDS011;11039;50.028;19.938;2022-09-11T07:19:18;4.22;;;2.20;;
21754;SDS011;11039;50.028;19.938;2022-09-11T07:21:44;6.88;;;2.60;;
21754;SDS011;11039;50.028;19.938;2022-09-11T07:24:10;2.53;;;2.00;;
21754;SDS011;11039;50.028;19.938;2022-09-11T07:26:37;4.18;;;2.05;;
21754;SDS011;11039;50.028;19.938;2022-09-11T07:29:03;3.25;;;2.25;;
21754;SDS011;11039;50.028;19.938;2022-09-11T07:31:30;3.40;;;1.83;;
21754;SDS011;11039;50.028;19.938;2022-09-11T07:33:57;3.67;;;2.08;;
21754;SDS011;11039;50.028;19.938;2022-09-11T07:36:24;4.50;;;2.17;;
21754;SDS011;11039;50.028;19.938;2022-09-11T07:38:51;2.72;;;1.95;;
21754;SDS011;11039;50.028;19.938;2022-09-11T07:41:19;4.22;;;2.15;;
21754;SDS011;11039;50.028;19.938;2022-09-11T07:43:45;3.83;;;2.70;;
21754;SDS011;11039;50.028;19.938;2022-09-11T07:46:14;3.88;;;2.63;;
21754;SDS011;11039;50.028;19.938;2022-09-11T07:48:41;5.95;;;2.65;;
21754;SDS011;11039;50.028;19.938;2022-09-11T07:51:08;3.70;;;2.85;;
21754;SDS011;11039;50.028;19.938;2022-09-11T07:53:39;7.53;;;3.28;;
21754;SDS011;11039;50.028;19.938;2022-09-11T07:56:09;4.25;;;3.00;;
21754;SDS011;11039;50.028;19.938;2022-09-11T07:58:36;7.45;;;2.70;;
21754;SDS011;11039;50.028;19.938;2022-09-11T08:01:02;3.83;;;2.75;;
21754;SDS011;11039;50.028;19.938;2022-09-11T08:03:29;3.97;;;2.75;;
21754;SDS011;11039;50.028;19.938;2022-09-11T08:05:56;4.90;;;3.00;;
21754;SDS011;11039;50.028;19.938;2022-09-11T08:08:22;4.43;;;3.00;;
21754;SDS011;11039;50.028;19.938;2022-09-11T08:10:49;3.50;;;2.70;;
21754;SDS011;11039;50.028;19.938;2022-09-11T08:13:15;5.15;;;3.08;;
21754;SDS011;11039;50.028;19.938;2022-09-11T08:15:45;4.30;;;2.92;;
21754;SDS011;11039;50.028;19.938;2022-09-11T08:18:11;5.95;;;3.53;;
21754;SDS011;11039;50.028;19.938;2022-09-11T08:20:37;5.57;;;3.35;;
21754;SDS011;11039;50.028;19.938;2022-09-11T08:23:04;9.70;;;2.88;;
21754;SDS011;11039;50.028;19.938;2022-09-11T08:25:30;5.05;;;2.97;;
21754;SDS011;11039;50.028;19.938;2022-09-11T08:27:56;4.45;;;2.88;;
21754;SDS011;11039;50.028;19.938;2022-09-11T08:30:23;5.15;;;3.22;;
21754;SDS011;11039;50.028;19.938;2022-09-11T08:32:49;6.13;;;3.45;;
21754;SDS011;11039;50.028;19.938;2022-09-11T08:35:15;5.10;;;3.13;;
21754;SDS011;11039;50.028;19.938;2022-09-11T08:37:41;6.03;;;3.10;;
21754;SDS011;11039;50.028;19.938;2022-09-11T08:40:07;5.55;;;3.17;;
21754;SDS011;11039;50.028;19.938;2022-09-11T08:42:35;7.05;;;3.65;;
21754;SDS011;11039;50.028;19.938;2022-09-11T08:45:02;4.20;;;2.80;;
21754;SDS011;11039;50.028;19.938;2022-09-11T08:47:32;6.20;;;3.10;;
21754;SDS011;11039;50.028;19.938;2022-09-11T08:52:25;4.68;;;2.92;;
21754;SDS011;11039;50.028;19.938;2022-09-11T08:54:51;4.55;;;2.88;;
21754;SDS011;11039;50.028;19.938;2022-09-11T09:04:55;4.18;;;3.15;;
21754;SDS011;11039;50.028;19.938;2022-09-11T09:15:14;3.80;;;2.15;;
21754;SDS011;11039;50.028;19.938;2022-09-11T09:17:44;2.63;;;2.30;;
21754;SDS011;11039;50.028;19.938;2022-09-11T09:20:13;3.55;;;2.63;;
21754;SDS011;11039;50.028;19.938;2022-09-11T09:22:51;2.30;;;1.90;;
21754;SDS011;11039;50.028;19.938;2022-09-11T09:25:19;2.78;;;2.00;;
21754;SDS011;11039;50.028;19.938;2022-09-11T09:27:55;2.22;;;1.98;;
21754;SDS011;11039;50.028;19.938;2022-09-11T09:30:24;2.63;;;2.10;;
21754;SDS011;11039;50.028;19.938;2022-09-11T09:32:57;3.40;;;2.00;;
21754;SDS011;11039;50.028;19.938;2022-09-11T09:35:28;4.13;;;2.30;;
21754;SDS011;11039;50.028;19.938;2022-09-11T09:37:56;2.80;;;2.40;;
21754;SDS011;11039;50.028;19.938;2022-09-11T09:40:22;3.72;;;2.13;;
21754;SDS011;11039;50.028;19.938;2022-09-11T09:43:06;3.33;;;2.28;;
21754;SDS011;11039;50.028;19.938;2022-09-11T09:45:41;2.83;;;1.98;;
21754;SDS011;11039;50.028;19.938;2022-09-11T09:48:09;2.58;;;1.65;;
21754;SDS011;11039;50.028;19.938;2022-09-11T09:50:39;2.35;;;2.00;;
21754;SDS011;11039;50.028;19.938;2022-09-11T09:55:41;4.15;;;2.20;;
21754;SDS011;11039;50.028;19.938;2022-09-11T09:58:08;4.22;;;2.15;;
21754;SDS011;11039;50.028;19.938;2022-09-11T10:00:35;2.78;;;2.10;;
21754;SDS011;11039;50.028;19.938;2022-09-11T10:03:18;3.05;;;2.35;;
21754;SDS011;11039;50.028;19.938;2022-09-11T10:05:45;4.05;;;2.42;;
21754;SDS011;11039;50.028;19.938;2022-09-11T10:08:25;2.63;;;2.25;;
21754;SDS011;11039;50.028;19.938;2022-09-11T10:10:56;3.40;;;2.03;;
21754;SDS011;11039;50.028;19.938;2022-09-11T10:13:24;4.38;;;2.45;;
21754;SDS011;11039;50.028;19.938;2022-09-11T10:15:52;4.68;;;3.08;;
21754;SDS011;11039;50.028;19.938;2022-09-11T10:21:18;2.78;;;2.20;;
21754;SDS011;11039;50.028;19.938;2022-09-11T10:23:51;2.90;;;2.60;;
21754;SDS011;11039;50.028;19.938;2022-09-11T10:26:37;2.90;;;2.45;;
21754;SDS011;11039;50.028;19.938;2022-09-11T10:29:06;2.40;;;2.10;;
21754;SDS011;11039;50.028;19.938;2022-09-11T10:31:34;5.57;;;2.90;;
21754;SDS011;11039;50.028;19.938;2022-09-11T10:34:03;3.20;;;2.60;;
21754;SDS011;11039;50.028;19.938;2022-09-11T10:36:30;2.78;;;2.22;;
21754;SDS011;11039;50.028;19.938;2022-09-11T10:38:57;2.58;;;2.22;;
21754;SDS011;11039;50.028;19.938;2022-09-11T10:41:27;3.13;;;2.30;;
21754;SDS011;11039;50.028;19.938;2022-09-11T10:44:16;2.75;;;2.42;;
21754;SDS011;11039;50.028;19.938;2022-09-11T10:46:47;4.15;;;2.83;;
21754;SDS011;11039;50.028;19.938;2022-09-11T10:49:26;3.03;;;2.50;;
21754;SDS011;11039;50.028;19.938;2022-09-11T10:52:00;3.95;;;2.67;;
21754;SDS011;11039;50.028;19.938;2022-09-11T10:57:13;3.97;;;2.78;;
21754;SDS011;11039;50.028;19.938;2022-09-11T11:02:31;3.65;;;2.35;;
21754;SDS011;11039;50.028;19.938;2022-09-11T11:05:05;3.20;;;2.10;;
21754;SDS011;11039;50.028;19.938;2022-09-11T11:10:04;2.50;;;2.30;;
21754;SDS011;11039;50.028;19.938;2022-09-11T11:17:26;2.97;;;2.47;;
21754;SDS011;11039;50.028;19.938;2022-09-11T11:19:59;2.95;;;2.65;;
21754;SDS011;11039;50.028;19.938;2022-09-11T11:27:58;3.28;;;2.75;;
21754;SDS011;11039;50.028;19.938;2022-09-11T11:30:28;3.33;;;2.72;;
21754;SDS011;11039;50.028;19.938;2022-09-11T11:38:21;3.33;;;2.72;;
21754;SDS011;11039;50.028;19.938;2022-09-11T11:41:08;3.65;;;2.72;;
21754;SDS011;11039;50.028;19.938;2022-09-11T11:43:37;4.28;;;3.17;;
21754;SDS011;11039;50.028;19.938;2022-09-11T11:46:09;4.60;;;2.72;;
21754;SDS011;11039;50.028;19.938;2022-09-11T11:48:43;5.10;;;2.58;;
21754;SDS011;11039;50.028;19.938;2022-09-11T11:51:11;5.28;;;2.63;;
21754;SDS011;11039;50.028;19.938;2022-09-11T11:53:41;5.80;;;3.13;;
21754;SDS011;11039;50.028;19.938;2022-09-11T12:04:29;4.15;;;2.58;;
21754;SDS011;11039;50.028;19.938;2022-09-11T12:06:57;4.55;;;2.85;;
21754;SDS011;11039;50.028;19.938;2022-09-11T12:09:23;5.32;;;2.85;;
21754;SDS011;11039;50.028;19.938;2022-09-11T12:11:51;4.22;;;3.22;;
21754;SDS011;11039;50.028;19.938;2022-09-11T12:14:26;4.88;;;2.97;;
21754;SDS011;11039;50.028;19.938;2022-09-11T12:16:54;4.88;;;3.00;;
21754;SDS011;11039;50.028;19.938;2022-09-11T12:19:21;3.80;;;3.17;;
21754;SDS011;11039;50.028;19.938;2022-09-11T12:29:54;5.88;;;3.70;;
21754;SDS011;11039;50.028;19.938;2022-09-11T12:32:26;5.65;;;3.08;;
21754;SDS011;11039;50.028;19.938;2022-09-11T12:35:11;8.35;;;3.88;;
21754;SDS011;11039;50.028;19.938;2022-09-11T12:37:39;7.18;;;3.30;;
21754;SDS011;11039;50.028;19.938;2022-09-11T12:40:17;5.32;;;3.60;;
21754;SDS011;11039;50.028;19.938;2022-09-11T12:42:44;4.35;;;3.33;;
21754;SDS011;11039;50.028;19.938;2022-09-11T12:45:28;4.03;;;3.20;;
21754;SDS011;11039;50.028;19.938;2022-09-11T12:47:59;6.30;;;3.20;;
21754;SDS011;11039;50.028;19.938;2022-09-11T12:50:27;6.82;;;3.08;;
21754;SDS011;11039;50.028;19.938;2022-09-11T12:52:53;4.70;;;2.92;;
21754;SDS011;11039;50.028;19.938;2022-09-11T12:58:04;2.65;;;2.45;;
21754;SDS011;11039;50.028;19.938;2022-09-11T13:00:40;4.68;;;2.45;;
21754;SDS011;11039;50.028;19.938;2022-09-11T13:03:15;3.55;;;2.50;;
21754;SDS011;11039;50.028;19.938;2022-09-11T13:05:41;2.90;;;2.20;;
21754;SDS011;11039;50.028;19.938;2022-09-11T13:08:16;3.03;;;2.38;;
21754;SDS011;11039;50.028;19.938;2022-09-11T13:10:44;3.88;;;2.50;;
21754;SDS011;11039;50.028;19.938;2022-09-11T13:15:55;3.53;;;2.40;;
21754;SDS011;11039;50.028;19.938;2022-09-11T13:18:29;4.35;;;2.22;;
21754;SDS011;11039;50.028;19.938;2022-09-11T13:20:56;3.10;;;2.28;;
21754;SDS011;11039;50.028;19.938;2022-09-11T13:23:24;5.00;;;2.90;;
21754;SDS011;11039;50.028;19.938;2022-09-11T13:25:51;2.80;;;2.47;;
21754;SDS011;11039;50.028;19.938;2022-09-11T13:28:19;4.43;;;2.92;;
21754;SDS011;11039;50.028;19.938;2022-09-11T13:30:53;2.92;;;2.30;;
21754;SDS011;11039;50.028;19.938;2022-09-11T13:33:21;3.33;;;2.40;;
21754;SDS011;11039;50.028;19.938;2022-09-11T13:35:48;6.53;;;2.58;;
21754;SDS011;11039;50.028;19.938;2022-09-11T13:38:17;3.58;;;2.60;;
21754;SDS011;11039;50.028;19.938;2022-09-11T13:40:47;3.78;;;2.90;;
21754;SDS011;11039;50.028;19.938;2022-09-11T13:43:36;3.55;;;2.90;;
21754;SDS011;11039;50.028;19.938;2022-09-11T13:48:35;3.08;;;2.78;;
21754;SDS011;11039;50.028;19.938;2022-09-11T13:51:01;3.08;;;2.67;;
21754;SDS011;11039;50.028;19.938;2022-09-11T13:53:29;3.72;;;2.95;;
21754;SDS011;11039;50.028;19.938;2022-09-11T13:55:56;3.10;;;2.80;;
21754;SDS011;11039;50.028;19.938;2022-09-11T13:58:23;3.33;;;2.95;;
21754;SDS011;11039;50.028;19.938;2022-09-11T14:00:50;3.85;;;3.10;;
21754;SDS011;11039;50.028;19.938;2022-09-11T14:03:25;3.70;;;3.00;;
21754;SDS011;11039;50.028;19.938;2022-09-11T14:05:53;3.75;;;3.08;;
21754;SDS011;11039;50.028;19.938;2022-09-11T14:08:27;3.20;;;2.80;;
21754;SDS011;11039;50.028;19.938;2022-09-11T14:10:57;4.03;;;3.28;;
21754;SDS011;11039;50.028;19.938;2022-09-11T14:16:04;3.53;;;2.78;;
21754;SDS011;11039;50.028;19.938;2022-09-11T14:18:54;4.60;;;2.97;;
21754;SDS011;11039;50.028;19.938;2022-09-11T14:21:52;3.38;;;2.92;;
21754;SDS011;11039;50.028;19.938;2022-09-11T14:26:50;7.00;;;2.90;;
21754;SDS011;11039;50.028;19.938;2022-09-11T14:29:23;4.35;;;2.75;;
21754;SDS011;11039;50.028;19.938;2022-09-11T14:31:52;3.75;;;2.75;;
21754;SDS011;11039;50.028;19.938;2022-09-11T14:34:19;5.53;;;2.70;;
21754;SDS011;11039;50.028;19.938;2022-09-11T14:36:56;5.32;;;3.22;;
21754;SDS011;11039;50.028;19.938;2022-09-11T14:39:33;3.55;;;2.80;;
21754;SDS011;11039;50.028;19.938;2022-09-11T14:42:00;3.33;;;2.97;;
21754;SDS011;11039;50.028;19.938;2022-09-11T14:44:30;4.85;;;2.70;;
21754;SDS011;11039;50.028;19.938;2022-09-11T14:46:57;6.00;;;2.80;;
21754;SDS011;11039;50.028;19.938;2022-09-11T14:49:23;4.43;;;3.25;;
21754;SDS011;11039;50.028;19.938;2022-09-11T14:51:54;5.55;;;3.10;;
21754;SDS011;11039;50.028;19.938;2022-09-11T14:54:22;6.03;;;2.92;;
21754;SDS011;11039;50.028;19.938;2022-09-11T14:56:48;5.30;;;2.80;;
21754;SDS011;11039;50.028;19.938;2022-09-11T14:59:15;7.00;;;3.08;;
21754;SDS011;11039;50.028;19.938;2022-09-11T15:01:41;4.85;;;2.97;;
21754;SDS011;11039;50.028;19.938;2022-09-11T15:04:09;4.63;;;2.85;;
21754;SDS011;11039;50.028;19.938;2022-09-11T15:06:37;4.32;;;2.92;;
21754;SDS011;11039;50.028;19.938;2022-09-11T15:09:03;5.28;;;3.05;;
21754;SDS011;11039;50.028;19.938;2022-09-11T15:11:29;7.90;;;2.90;;
21754;SDS011;11039;50.028;19.938;2022-09-11T15:13:57;7.78;;;3.17;;
21754;SDS011;11039;50.028;19.938;2022-09-11T15:16:23;5.05;;;2.92;;
21754;SDS011;11039;50.028;19.938;2022-09-11T15:18:49;6.32;;;2.55;;
21754;SDS011;11039;50.028;19.938;2022-09-11T15:21:15;16.92;;;9.07;;
21754;SDS011;11039;50.028;19.938;2022-09-11T15:23:41;6.55;;;3.78;;
21754;SDS011;11039;50.028;19.938;2022-09-11T15:26:10;25.95;;;17.50;;
21754;SDS011;11039;50.028;19.938;2022-09-11T15:28:36;13.15;;;8.60;;
21754;SDS011;11039;50.028;19.938;2022-09-11T15:31:03;6.80;;;4.40;;
21754;SDS011;11039;50.028;19.938;2022-09-11T15:33:29;6.45;;;3.63;;
21754;SDS011;11039;50.028;19.938;2022-09-11T15:36:03;5.05;;;3.38;;
21754;SDS011;11039;50.028;19.938;2022-09-11T15:38:30;5.82;;;2.92;;
21754;SDS011;11039;50.028;19.938;2022-09-11T15:40:56;5.10;;;2.85;;
21754;SDS011;11039;50.028;19.938;2022-09-11T15:43:22;4.45;;;2.50;;
21754;SDS011;11039;50.028;19.938;2022-09-11T15:45:49;4.57;;;3.60;;
21754;SDS011;11039;50.028;19.938;2022-09-11T15:48:15;4.45;;;2.72;;
21754;SDS011;11039;50.028;19.938;2022-09-11T15:50:41;4.65;;;3.03;;
21754;SDS011;11039;50.028;19.938;2022-09-11T15:53:07;6.45;;;3.58;;
21754;SDS011;11039;50.028;19.938;2022-09-11T15:55:34;4.25;;;2.67;;
21754;SDS011;11039;50.028;19.938;2022-09-11T15:58:00;3.80;;;2.80;;
21754;SDS011;11039;50.028;19.938;2022-09-11T16:00:27;4.65;;;2.70;;
21754;SDS011;11039;50.028;19.938;2022-09-11T16:02:53;3.78;;;2.42;;
21754;SDS011;11039;50.028;19.938;2022-09-11T16:05:20;5.90;;;2.33;;
21754;SDS011;11039;50.028;19.938;2022-09-11T16:07:47;4.53;;;2.35;;
21754;SDS011;11039;50.028;19.938;2022-09-11T16:10:13;5.82;;;2.85;;
21754;SDS011;11039;50.028;19.938;2022-09-11T16:12:39;5.03;;;2.25;;
21754;SDS011;11039;50.028;19.938;2022-09-11T16:15:05;4.75;;;2.60;;
21754;SDS011;11039;50.028;19.938;2022-09-11T16:17:31;5.00;;;2.78;;
21754;SDS011;11039;50.028;19.938;2022-09-11T16:19:57;6.45;;;2.95;;
21754;SDS011;11039;50.028;19.938;2022-09-11T16:22:24;4.47;;;2.35;;
21754;SDS011;11039;50.028;19.938;2022-09-11T16:24:50;3.38;;;2.30;;
21754;SDS011;11039;50.028;19.938;2022-09-11T16:27:16;3.05;;;2.50;;
21754;SDS011;11039;50.028;19.938;2022-09-11T16:29:43;5.32;;;2.03;;